Time;durP1;ratioP1;P1;durP2;ratioP2;P2;SDS_P1;SDS_P2;PMS_P1;PMS_P2;Temp;Humidity;BMP_temperature;BMP_pressure;BME280_temperature;BME280_humidity;BME280_pressure;Samples;Min_cycle;Max_cycle;Signal;HPM_P1;HPM_P2
2022/02/27 00:02:14;;;;;;;15.50;6.77;;;3.10;99.90;;;;;;5053037;28;20462;-68
2022/02/27 00:04:40;;;;;;;15.67;8.13;;;3.20;99.90;;;;;;5052936;28;20186;-69
2022/02/27 00:07:06;;;;;;;11.83;5.87;;;3.20;99.90;;;;;;5052563;28;20553;-71
2022/02/27 00:09:31;;;;;;;11.07;6.13;;;3.20;99.90;;;;;;5053102;28;20417;-68
2022/02/27 00:11:57;;;;;;;11.43;7.37;;;3.20;99.90;;;;;;5053412;28;20658;-67
2022/02/27 00:14:23;;;;;;;10.63;6.57;;;3.20;99.90;;;;;;5053120;28;20595;-67
2022/02/27 00:16:49;;;;;;;8.20;6.50;;;3.20;99.90;;;;;;5053231;28;20236;-68
2022/02/27 00:19:14;;;;;;;8.13;5.97;;;3.20;99.90;;;;;;5053572;28;20406;-69
2022/02/27 00:21:41;;;;;;;11.43;6.20;;;3.20;99.90;;;;;;5053660;28;20183;-68
2022/02/27 00:24:07;;;;;;;12.07;6.80;;;3.20;99.90;;;;;;5053865;28;20220;-67
2022/02/27 00:26:33;;;;;;;10.87;6.00;;;3.20;99.90;;;;;;5035321;28;20447;-68
2022/02/27 00:28:59;;;;;;;8.33;6.07;;;3.20;99.90;;;;;;5052818;28;20549;-68
2022/02/27 00:31:24;;;;;;;9.37;5.50;;;3.10;99.90;;;;;;5052972;28;20205;-69
2022/02/27 00:33:50;;;;;;;8.90;5.30;;;3.10;99.90;;;;;;5052273;28;20180;-68
2022/02/27 00:36:16;;;;;;;8.80;6.00;;;3.00;99.90;;;;;;5052057;28;20200;-68
2022/02/27 00:38:42;;;;;;;9.50;5.63;;;3.10;99.90;;;;;;5034476;28;20187;-68
2022/02/27 00:41:08;;;;;;;9.23;5.70;;;3.10;99.90;;;;;;5052612;28;20494;-68
2022/02/27 00:43:34;;;;;;;11.03;5.70;;;3.00;99.90;;;;;;5034249;28;20458;-68
2022/02/27 00:46:00;;;;;;;13.60;6.50;;;3.00;99.90;;;;;;5052493;28;20862;-68
2022/02/27 00:48:26;;;;;;;15.40;6.33;;;3.00;99.90;;;;;;5033712;28;20473;-69
2022/02/27 00:50:52;;;;;;;7.80;5.87;;;3.00;99.90;;;;;;5052562;28;20414;-69
2022/02/27 00:53:17;;;;;;;11.50;6.10;;;3.00;99.90;;;;;;5052073;28;20903;-69
2022/02/27 00:55:43;;;;;;;9.30;5.67;;;3.00;99.90;;;;;;5052112;28;20207;-70
2022/02/27 00:58:09;;;;;;;14.50;6.00;;;3.00;99.90;;;;;;5052328;28;20191;-70
2022/02/27 01:00:34;;;;;;;8.30;6.50;;;3.00;99.90;;;;;;5051759;28;20184;-68
2022/02/27 01:03:00;;;;;;;7.63;5.47;;;3.00;99.90;;;;;;5051587;28;20518;-67
2022/02/27 01:05:26;;;;;;;11.10;5.77;;;3.00;99.90;;;;;;5051907;28;20197;-70
2022/02/27 01:07:51;;;;;;;9.17;5.40;;;3.00;99.90;;;;;;5051831;28;20246;-68
2022/02/27 01:10:17;;;;;;;9.70;5.70;;;3.10;99.90;;;;;;5051760;28;20532;-68
2022/02/27 01:12:42;;;;;;;8.50;5.67;;;2.90;99.90;;;;;;5051701;28;20214;-66
2022/02/27 01:15:09;;;;;;;8.77;5.43;;;2.90;99.90;;;;;;5051964;28;20201;-68
2022/02/27 01:17:35;;;;;;;13.30;5.77;;;2.90;99.90;;;;;;5053941;28;20189;-69
2022/02/27 01:20:00;;;;;;;14.80;6.60;;;2.80;99.90;;;;;;5055806;28;20442;-70
2022/02/27 01:22:26;;;;;;;7.23;5.63;;;2.80;99.90;;;;;;5055772;28;20985;-69
2022/02/27 01:24:51;;;;;;;8.80;5.23;;;2.80;99.90;;;;;;5055905;28;20596;-69
2022/02/27 01:27:17;;;;;;;5.60;4.83;;;2.80;99.90;;;;;;5055900;28;20211;-68
2022/02/27 01:29:42;;;;;;;7.30;4.53;;;2.80;99.90;;;;;;5056377;28;20255;-69
2022/02/27 01:32:08;;;;;;;6.17;5.50;;;2.80;99.90;;;;;;5055314;28;20211;-69
2022/02/27 01:34:34;;;;;;;7.10;5.50;;;2.90;99.90;;;;;;5055618;28;20195;-68
2022/02/27 01:36:59;;;;;;;8.20;5.60;;;2.80;99.90;;;;;;5055662;28;20544;-67
2022/02/27 01:39:25;;;;;;;6.70;5.00;;;2.80;99.90;;;;;;5055663;28;20662;-68
2022/02/27 01:41:50;;;;;;;10.10;5.57;;;2.80;99.90;;;;;;5054633;28;20183;-68
2022/02/27 01:44:16;;;;;;;10.20;6.13;;;2.70;99.90;;;;;;5055456;28;20195;-68
2022/02/27 01:47:03;;;;;;;7.63;5.00;;;2.70;99.90;;;;;;5055503;28;20200;-68
2022/02/27 01:49:29;;;;;;;8.17;5.20;;;2.70;99.90;;;;;;5054514;28;20197;-69
2022/02/27 01:51:55;;;;;;;10.23;5.20;;;2.70;99.90;;;;;;5054678;28;20513;-69
2022/02/27 01:54:22;;;;;;;9.53;5.77;;;2.70;99.90;;;;;;5055173;28;20419;-68
2022/02/27 01:56:48;;;;;;;6.97;4.60;;;2.60;99.90;;;;;;5081590;22;20266;-70
2022/02/27 01:59:14;;;;;;;8.00;5.20;;;2.50;99.90;;;;;;5063629;28;20504;-70
2022/02/27 02:01:40;;;;;;;6.43;5.17;;;2.50;99.90;;;;;;5064101;28;20740;-69
2022/02/27 02:04:06;;;;;;;7.50;5.00;;;2.40;99.90;;;;;;5092356;28;20472;-69
2022/02/27 02:06:31;;;;;;;6.97;5.23;;;2.40;99.90;;;;;;5085147;28;20449;-71
2022/02/27 02:08:57;;;;;;;9.10;4.90;;;2.30;99.90;;;;;;5076857;28;20164;-68
2022/02/27 02:11:22;;;;;;;8.50;5.27;;;2.40;99.90;;;;;;5080808;28;20255;-68
2022/02/27 02:13:48;;;;;;;9.00;4.73;;;2.50;99.90;;;;;;5077519;28;20612;-69
2022/02/27 02:16:13;;;;;;;7.10;5.10;;;2.50;99.90;;;;;;5056004;28;20207;-70
2022/02/27 02:18:40;;;;;;;6.80;5.60;;;2.60;99.90;;;;;;5054933;28;20456;-70
2022/02/27 02:21:07;;;;;;;8.90;5.40;;;2.50;99.90;;;;;;5055331;28;20184;-70
2022/02/27 02:23:32;;;;;;;6.80;4.90;;;2.50;99.90;;;;;;5054967;28;20465;-70
2022/02/27 02:26:01;;;;;;;8.60;5.73;;;2.50;99.90;;;;;;5054791;28;20459;-69
2022/02/27 02:28:27;;;;;;;6.50;5.20;;;2.60;99.90;;;;;;5053758;28;20178;-69
2022/02/27 02:30:52;;;;;;;7.97;5.20;;;2.60;99.90;;;;;;5054439;28;20937;-70
2022/02/27 02:33:18;;;;;;;10.43;5.73;;;2.50;99.90;;;;;;5054173;28;20184;-69
2022/02/27 02:35:45;;;;;;;6.90;4.67;;;2.50;99.90;;;;;;5055296;28;20217;-69
2022/02/27 02:38:10;;;;;;;6.93;5.10;;;2.60;99.90;;;;;;5061505;28;20191;-70
2022/02/27 02:40:36;;;;;;;9.23;5.10;;;2.50;99.90;;;;;;5074345;28;20429;-69
2022/02/27 02:43:02;;;;;;;7.90;4.70;;;2.40;99.90;;;;;;5074034;28;20211;-69
2022/02/27 02:45:27;;;;;;;10.70;5.70;;;2.40;99.90;;;;;;5074240;28;20294;-70
2022/02/27 02:47:55;;;;;;;11.40;4.87;;;2.40;99.90;;;;;;5071608;28;20577;-69
2022/02/27 02:50:22;;;;;;;11.73;4.83;;;2.30;99.90;;;;;;5073995;28;20263;-70
2022/02/27 02:52:48;;;;;;;6.90;4.67;;;2.20;99.90;;;;;;5074203;28;20422;-70
2022/02/27 02:55:17;;;;;;;11.23;5.57;;;2.20;99.90;;;;;;5073955;28;20449;-71
2022/02/27 02:57:43;;;;;;;8.73;5.30;;;2.30;99.90;;;;;;5073997;28;20449;-70
2022/02/27 03:00:11;;;;;;;10.07;5.40;;;2.30;99.90;;;;;;5072415;28;20874;-70
2022/02/27 03:02:37;;;;;;;7.47;5.00;;;2.20;99.90;;;;;;5073735;28;20508;-69
2022/02/27 03:05:05;;;;;;;9.00;4.97;;;2.20;99.90;;;;;;5056222;28;20905;-69
2022/02/27 03:07:35;;;;;;;9.20;5.00;;;2.20;99.90;;;;;;5073669;28;20435;-70
2022/02/27 03:10:01;;;;;;;9.43;5.10;;;2.20;99.90;;;;;;5072438;28;20426;-70
2022/02/27 03:12:27;;;;;;;7.10;5.13;;;2.30;99.90;;;;;;5074090;28;20509;-69
2022/02/27 03:14:52;;;;;;;8.40;4.33;;;2.30;99.90;;;;;;5074223;28;20444;-69
2022/02/27 03:17:18;;;;;;;10.57;5.50;;;2.40;99.90;;;;;;5073973;28;20670;-70
2022/02/27 03:19:43;;;;;;;5.07;4.57;;;2.40;99.90;;;;;;5073707;28;20190;-69
2022/02/27 03:22:09;;;;;;;9.83;5.40;;;2.40;99.90;;;;;;5071306;28;20231;-70
2022/02/27 03:24:34;;;;;;;9.90;5.60;;;2.30;99.90;;;;;;5074047;28;20262;-70
2022/02/27 03:27:00;;;;;;;7.83;4.40;;;2.30;99.90;;;;;;5073798;28;20689;-70
2022/02/27 03:29:25;;;;;;;7.40;5.53;;;2.40;99.90;;;;;;5074620;28;20179;-70
2022/02/27 03:31:51;;;;;;;8.37;5.30;;;2.20;99.90;;;;;;5074987;28;20292;-70
2022/02/27 03:34:16;;;;;;;7.80;5.40;;;2.30;99.90;;;;;;5098302;28;20179;-68
2022/02/27 03:36:42;;;;;;;8.30;4.70;;;2.30;99.90;;;;;;5099105;28;20188;-67
2022/02/27 03:39:07;;;;;;;7.57;4.67;;;2.20;99.90;;;;;;5099217;28;20168;-68
2022/02/27 03:41:33;;;;;;;6.13;4.90;;;2.20;99.90;;;;;;5097401;28;20185;-68
2022/02/27 03:43:59;;;;;;;7.43;6.17;;;2.20;99.90;;;;;;5091621;28;20223;-70
2022/02/27 03:46:24;;;;;;;8.00;4.30;;;2.30;99.90;;;;;;5073214;28;20204;-69
2022/02/27 03:48:50;;;;;;;9.83;5.67;;;2.30;99.90;;;;;;5073917;28;20187;-69
2022/02/27 03:51:15;;;;;;;11.70;5.50;;;2.30;99.90;;;;;;5073427;28;20556;-70
2022/02/27 03:53:41;;;;;;;8.37;4.40;;;2.30;99.90;;;;;;5071464;28;20175;-70
2022/02/27 03:56:06;;;;;;;13.10;5.73;;;2.20;99.90;;;;;;5072920;28;20217;-69
2022/02/27 03:58:32;;;;;;;7.10;4.90;;;2.10;99.90;;;;;;5072994;28;20205;-69
2022/02/27 04:00:57;;;;;;;9.37;5.03;;;2.20;99.90;;;;;;5072803;28;20231;-70
2022/02/27 04:03:23;;;;;;;14.20;6.00;;;2.20;99.90;;;;;;5071311;28;20611;-71
2022/02/27 04:05:48;;;;;;;6.70;4.90;;;2.10;99.90;;;;;;5072693;28;20191;-69
2022/02/27 04:08:14;;;;;;;7.63;4.87;;;2.10;99.90;;;;;;5072996;28;20172;-69
2022/02/27 04:10:41;;;;;;;8.73;4.93;;;2.10;99.90;;;;;;5072661;28;20252;-69
2022/02/27 04:13:07;;;;;;;6.70;4.90;;;2.10;99.90;;;;;;5070779;28;20186;-70
2022/02/27 04:15:32;;;;;;;9.37;5.17;;;2.20;99.90;;;;;;5072633;28;20433;-68
2022/02/27 04:17:58;;;;;;;7.57;5.30;;;2.10;99.90;;;;;;5072986;28;20174;-70
2022/02/27 04:20:24;;;;;;;8.70;5.60;;;2.10;99.90;;;;;;5072740;28;20606;-69
2022/02/27 04:22:49;;;;;;;7.47;4.40;;;2.10;99.90;;;;;;5072450;28;20238;-69
2022/02/27 04:25:15;;;;;;;10.77;5.13;;;2.10;99.90;;;;;;5071550;28;20229;-69
2022/02/27 04:27:40;;;;;;;9.47;4.63;;;2.10;99.90;;;;;;5072624;28;20679;-70
2022/02/27 04:30:07;;;;;;;5.23;4.43;;;2.10;99.90;;;;;;5072680;28;20186;-70
2022/02/27 04:32:32;;;;;;;5.13;4.60;;;2.20;99.90;;;;;;5073389;28;20270;-70
2022/02/27 04:34:58;;;;;;;9.67;4.60;;;2.20;99.90;;;;;;5075660;28;20465;-70
2022/02/27 04:37:24;;;;;;;6.53;4.00;;;2.10;99.90;;;;;;5088459;28;20206;-68
2022/02/27 04:39:49;;;;;;;7.60;4.70;;;2.10;99.90;;;;;;5096307;28;20183;-68
2022/02/27 04:42:15;;;;;;;5.97;4.30;;;2.10;99.90;;;;;;5077749;28;20202;-70
2022/02/27 04:44:43;;;;;;;8.33;4.97;;;2.10;99.90;;;;;;5092383;28;20167;-69
2022/02/27 04:47:12;;;;;;;8.27;5.20;;;2.20;99.90;;;;;;5096222;28;20198;-67
2022/02/27 04:49:37;;;;;;;10.00;4.50;;;2.10;99.90;;;;;;5079189;28;20425;-69
2022/02/27 04:52:04;;;;;;;6.07;4.90;;;2.10;99.90;;;;;;5072202;28;20510;-70
2022/02/27 04:54:30;;;;;;;8.73;4.70;;;2.10;99.90;;;;;;5070943;28;20173;-69
2022/02/27 04:56:55;;;;;;;9.00;4.23;;;2.20;99.90;;;;;;5072190;28;20532;-70
2022/02/27 04:59:21;;;;;;;5.27;4.53;;;2.20;99.90;;;;;;5072133;28;20174;-70
2022/02/27 05:01:46;;;;;;;9.07;4.53;;;2.10;99.90;;;;;;5071825;28;20165;-69
2022/02/27 05:04:12;;;;;;;6.07;4.40;;;2.00;99.90;;;;;;5070455;28;20287;-68
2022/02/27 05:06:38;;;;;;;10.00;5.20;;;1.90;99.90;;;;;;5074452;28;20229;-70
2022/02/27 05:09:04;;;;;;;6.30;4.40;;;1.90;99.90;;;;;;5072984;28;20214;-69
2022/02/27 05:11:29;;;;;;;7.37;4.80;;;2.00;99.90;;;;;;5072061;28;20930;-69
2022/02/27 05:13:55;;;;;;;8.50;4.43;;;2.00;99.90;;;;;;5072322;28;20686;-69
2022/02/27 05:16:20;;;;;;;11.93;4.43;;;2.00;99.90;;;;;;5070693;28;20234;-70
2022/02/27 05:18:46;;;;;;;8.50;5.20;;;2.00;99.90;;;;;;5072349;28;20175;-69
2022/02/27 05:21:11;;;;;;;6.00;4.73;;;1.90;99.90;;;;;;5072402;28;20183;-71
2022/02/27 05:23:37;;;;;;;11.13;4.70;;;1.90;99.90;;;;;;5072016;28;20297;-68
2022/02/27 05:26:02;;;;;;;8.00;4.93;;;1.90;99.90;;;;;;5070952;28;20207;-69
2022/02/27 05:28:28;;;;;;;8.67;4.77;;;1.80;99.90;;;;;;5073295;28;20265;-69
2022/02/27 05:30:54;;;;;;;5.70;4.40;;;1.80;99.90;;;;;;5080466;28;20186;-69
2022/02/27 05:33:20;;;;;;;9.03;4.63;;;1.80;99.90;;;;;;5086530;28;20191;-69
2022/02/27 05:35:46;;;;;;;6.37;4.90;;;1.70;99.90;;;;;;5084050;28;20508;-70
2022/02/27 05:38:11;;;;;;;5.53;4.23;;;1.70;99.90;;;;;;5059159;28;20184;-68
2022/02/27 05:40:37;;;;;;;6.33;4.50;;;1.70;99.90;;;;;;5067662;28;20422;-68
2022/02/27 05:43:02;;;;;;;5.80;5.07;;;1.60;99.90;;;;;;5059464;28;20207;-68
2022/02/27 05:45:28;;;;;;;6.67;4.63;;;1.60;99.90;;;;;;5056046;28;20184;-69
2022/02/27 05:47:53;;;;;;;8.03;4.60;;;1.50;99.90;;;;;;5066969;28;20187;-67
2022/02/27 05:50:19;;;;;;;6.47;5.10;;;1.60;99.90;;;;;;5080442;28;20175;-70
2022/02/27 05:52:44;;;;;;;7.53;4.10;;;1.60;99.90;;;;;;5071284;28;20183;-69
2022/02/27 05:55:10;;;;;;;7.30;5.10;;;1.60;99.90;;;;;;5071620;28;20265;-69
2022/02/27 05:57:36;;;;;;;5.77;4.20;;;1.60;99.90;;;;;;5069902;28;20215;-69
2022/02/27 06:00:02;;;;;;;8.97;5.20;;;1.60;99.90;;;;;;5071318;28;20547;-70
2022/02/27 06:02:27;;;;;;;5.77;4.40;;;1.60;99.90;;;;;;5071175;28;20585;-70
2022/02/27 06:04:53;;;;;;;10.40;5.30;;;1.60;99.90;;;;;;5074166;28;20421;-69
2022/02/27 06:07:18;;;;;;;6.80;4.50;;;1.60;99.90;;;;;;5057479;28;20208;-69
2022/02/27 06:09:44;;;;;;;6.10;5.20;;;1.50;99.90;;;;;;5073957;28;20176;-70
2022/02/27 06:12:09;;;;;;;7.03;5.10;;;1.60;99.90;;;;;;5075296;28;20177;-69
2022/02/27 06:14:35;;;;;;;9.43;4.43;;;1.70;99.90;;;;;;5075175;28;20174;-69
2022/02/27 06:17:01;;;;;;;8.20;4.60;;;1.70;99.90;;;;;;5075507;28;20196;-69
2022/02/27 06:19:26;;;;;;;8.53;4.10;;;1.80;99.90;;;;;;5073988;28;20176;-70
2022/02/27 06:21:51;;;;;;;8.40;4.83;;;1.70;99.90;;;;;;5056805;28;20669;-69
2022/02/27 06:24:17;;;;;;;9.10;4.90;;;1.60;99.90;;;;;;5057551;28;20201;-70
2022/02/27 06:26:43;;;;;;;10.60;5.33;;;1.60;99.90;;;;;;5075326;28;20190;-70
2022/02/27 06:29:08;;;;;;;6.93;4.40;;;1.60;99.90;;;;;;5074844;28;20178;-71
2022/02/27 06:31:34;;;;;;;7.33;5.03;;;1.60;99.90;;;;;;5074083;28;20776;-70
2022/02/27 06:34:00;;;;;;;8.03;4.57;;;1.60;99.90;;;;;;5075495;28;20173;-70
2022/02/27 06:36:25;;;;;;;8.53;4.37;;;1.60;99.90;;;;;;5074978;28;20199;-69
2022/02/27 06:38:51;;;;;;;8.83;5.50;;;1.70;99.90;;;;;;5062379;28;20729;-70
2022/02/27 06:41:17;;;;;;;6.60;4.70;;;1.70;99.90;;;;;;5055251;28;20204;-70
2022/02/27 06:43:43;;;;;;;7.23;4.90;;;1.70;99.90;;;;;;5055056;28;20456;-68
2022/02/27 06:46:09;;;;;;;8.47;4.53;;;1.60;99.90;;;;;;5055753;28;20204;-70
2022/02/27 06:48:34;;;;;;;9.47;4.27;;;1.50;99.90;;;;;;5056234;28;20499;-70
2022/02/27 06:51:00;;;;;;;8.10;5.00;;;1.60;99.90;;;;;;5055086;28;20499;-70
2022/02/27 06:53:26;;;;;;;8.60;5.20;;;1.70;99.90;;;;;;5055123;28;20186;-69
2022/02/27 06:55:51;;;;;;;13.13;5.67;;;1.70;99.90;;;;;;5054938;28;20210;-70
2022/02/27 06:58:18;;;;;;;6.37;5.13;;;1.80;99.90;;;;;;5055355;28;20178;-70
2022/02/27 07:00:44;;;;;;;6.57;4.80;;;1.70;99.90;;;;;;5057305;28;20212;-71
2022/02/27 07:03:10;;;;;;;6.97;5.13;;;1.70;99.90;;;;;;5055766;28;20464;-71
2022/02/27 07:05:36;;;;;;;8.10;5.17;;;1.70;99.90;;;;;;5055422;28;20410;-71
2022/02/27 07:08:01;;;;;;;5.47;3.97;;;1.80;99.90;;;;;;5055297;28;20416;-71
2022/02/27 07:10:27;;;;;;;7.37;5.17;;;1.80;99.90;;;;;;5056279;28;20176;-70
2022/02/27 07:12:53;;;;;;;8.90;6.00;;;1.90;99.90;;;;;;5054587;28;20187;-69
2022/02/27 07:15:18;;;;;;;10.00;4.87;;;1.90;99.90;;;;;;5055074;28;20202;-70
2022/02/27 07:17:44;;;;;;;11.50;5.97;;;1.80;99.90;;;;;;5054724;28;21156;-71
2022/02/27 07:20:10;;;;;;;9.47;6.07;;;1.90;99.90;;;;;;5038754;28;20260;-70
2022/02/27 07:22:36;;;;;;;7.13;5.60;;;1.90;99.90;;;;;;5055830;28;20797;-70
2022/02/27 07:25:04;;;;;;;10.73;6.20;;;1.80;99.90;;;;;;5055242;28;20186;-70
2022/02/27 07:27:31;;;;;;;12.50;6.87;;;1.70;99.90;;;;;;5054630;28;20472;-69
2022/02/27 07:29:57;;;;;;;9.23;5.80;;;1.70;99.90;;;;;;5054514;28;21220;-69
2022/02/27 07:32:22;;;;;;;8.33;5.63;;;1.80;99.90;;;;;;5054924;28;20433;-68
2022/02/27 07:34:48;;;;;;;8.10;4.50;;;1.80;99.90;;;;;;5054214;28;20180;-69
2022/02/27 07:37:13;;;;;;;6.97;5.97;;;1.90;99.90;;;;;;5054942;28;20279;-68
2022/02/27 07:39:39;;;;;;;10.10;5.70;;;1.90;99.90;;;;;;5054127;28;20186;-69
2022/02/27 07:42:04;;;;;;;9.70;5.67;;;2.00;99.90;;;;;;5061047;28;20190;-69
2022/02/27 07:44:30;;;;;;;10.97;6.10;;;2.10;99.90;;;;;;5073328;28;20168;-69
2022/02/27 07:46:56;;;;;;;12.63;6.50;;;2.20;99.90;;;;;;5073414;28;20229;-69
2022/02/27 07:49:22;;;;;;;5.37;4.57;;;2.30;99.90;;;;;;5073039;28;20583;-69
2022/02/27 07:51:47;;;;;;;7.77;5.73;;;2.40;99.90;;;;;;5071227;28;20579;-69
2022/02/27 07:54:13;;;;;;;5.00;4.43;;;2.50;99.90;;;;;;5072851;28;20475;-70
2022/02/27 07:56:38;;;;;;;8.83;5.20;;;2.60;99.90;;;;;;5088257;22;20258;-69
2022/02/27 07:59:04;;;;;;;7.07;5.00;;;2.70;99.90;;;;;;5042889;28;20234;-69
2022/02/27 08:01:30;;;;;;;7.10;4.10;;;2.80;99.90;;;;;;5033069;28;20277;-69
2022/02/27 08:03:58;;;;;;;5.20;4.10;;;2.90;99.90;;;;;;5047547;28;20216;-69
2022/02/27 08:06:23;;;;;;;6.27;3.93;;;3.10;99.90;;;;;;5053189;28;20201;-69
2022/02/27 08:08:49;;;;;;;8.00;4.80;;;3.10;99.90;;;;;;5053201;28;20530;-68
2022/02/27 08:11:16;;;;;;;5.43;3.67;;;3.30;99.90;;;;;;5053001;28;20188;-68
2022/02/27 08:13:42;;;;;;;5.90;3.87;;;3.30;99.90;;;;;;5052604;28;20182;-68
2022/02/27 08:16:08;;;;;;;7.63;4.07;;;3.40;99.90;;;;;;5053198;28;20425;-68
2022/02/27 08:18:34;;;;;;;4.43;4.03;;;3.60;99.90;;;;;;5051955;28;20546;-69
2022/02/27 08:20:59;;;;;;;5.53;3.80;;;3.70;99.90;;;;;;5050788;28;20413;-68
2022/02/27 08:23:26;;;;;;;8.07;4.67;;;3.80;99.90;;;;;;5052717;28;20865;-68
2022/02/27 08:25:53;;;;;;;6.83;4.10;;;3.80;99.90;;;;;;5052445;28;20202;-69
2022/02/27 08:28:19;;;;;;;8.97;4.30;;;3.90;99.90;;;;;;5052288;28;20434;-69
2022/02/27 08:30:45;;;;;;;5.87;3.60;;;4.00;99.90;;;;;;5053663;28;20498;-69
2022/02/27 08:33:11;;;;;;;9.87;4.30;;;4.10;99.90;;;;;;5053002;28;20480;-69
2022/02/27 08:35:36;;;;;;;6.80;3.77;;;4.10;99.90;;;;;;5052515;28;20179;-69
2022/02/27 08:38:02;;;;;;;5.77;3.43;;;4.20;99.90;;;;;;5052574;28;20236;-69
2022/02/27 08:40:27;;;;;;;5.80;4.03;;;4.30;99.90;;;;;;5053311;28;20648;-68
2022/02/27 08:42:55;;;;;;;4.07;3.50;;;4.40;99.90;;;;;;5052876;28;20207;-69
2022/02/27 08:45:22;;;;;;;5.33;3.50;;;4.50;99.90;;;;;;5053158;28;20376;-67
2022/02/27 08:47:47;;;;;;;5.70;3.47;;;4.60;99.90;;;;;;5053661;28;20434;-68
2022/02/27 08:50:13;;;;;;;6.27;3.70;;;4.70;99.90;;;;;;5053695;28;20924;-68
2022/02/27 08:52:38;;;;;;;8.00;4.40;;;4.70;99.90;;;;;;5054697;28;20238;-68
2022/02/27 08:55:05;;;;;;;6.43;2.80;;;4.90;99.90;;;;;;5054762;28;20184;-68
2022/02/27 08:57:31;;;;;;;5.70;3.00;;;5.00;99.90;;;;;;5053395;28;20213;-68
2022/02/27 08:59:56;;;;;;;5.73;3.50;;;5.00;99.90;;;;;;5053229;28;20511;-68
2022/02/27 09:02:22;;;;;;;3.70;2.80;;;5.10;99.90;;;;;;5056282;28;20255;-69
2022/02/27 09:04:49;;;;;;;5.13;3.10;;;5.10;99.90;;;;;;5059920;28;20671;-68
2022/02/27 09:07:15;;;;;;;4.03;2.60;;;5.20;99.90;;;;;;5061942;28;20185;-68
2022/02/27 09:09:42;;;;;;;4.03;2.60;;;5.40;99.90;;;;;;5055136;28;20421;-68
2022/02/27 09:12:09;;;;;;;2.83;2.47;;;5.50;99.90;;;;;;5041142;28;20419;-69
2022/02/27 09:14:36;;;;;;;4.60;2.87;;;5.50;99.00;;;;;;5059548;28;20410;-68
2022/02/27 09:17:01;;;;;;;4.73;2.70;;;5.50;99.00;;;;;;5058104;28;20929;-70
2022/02/27 09:19:27;;;;;;;3.33;2.40;;;5.60;99.00;;;;;;5059278;28;20409;-69
2022/02/27 09:21:53;;;;;;;3.20;2.80;;;5.70;98.70;;;;;;5057613;28;20417;-69
2022/02/27 09:24:18;;;;;;;3.20;2.80;;;5.80;98.20;;;;;;5055673;28;20202;-70
2022/02/27 09:26:45;;;;;;;5.20;2.47;;;5.80;97.90;;;;;;5054763;28;20206;-69
2022/02/27 09:29:11;;;;;;;3.53;2.67;;;5.90;97.50;;;;;;5055862;28;20166;-69
2022/02/27 09:31:37;;;;;;;3.00;2.30;;;6.00;97.00;;;;;;5060810;28;21225;-69
2022/02/27 09:34:03;;;;;;;3.60;2.60;;;6.00;97.00;;;;;;5063572;28;20414;-69
2022/02/27 09:36:28;;;;;;;4.60;2.70;;;6.10;97.00;;;;;;5062971;28;20196;-69
2022/02/27 09:38:54;;;;;;;4.57;3.63;;;6.20;96.90;;;;;;5065684;28;20218;-69
2022/02/27 09:41:19;;;;;;;4.40;2.93;;;6.30;96.30;;;;;;5071059;28;20230;-69
2022/02/27 09:43:53;;;;;;;3.63;2.93;;;6.40;96.70;;;;;;5071549;28;20242;-68
2022/02/27 09:46:23;;;;;;;6.17;2.60;;;6.40;96.10;;;;;;5070067;28;20199;-69
2022/02/27 09:48:49;;;;;;;4.07;2.63;;;6.50;95.90;;;;;;5058998;28;20556;-69
2022/02/27 09:51:15;;;;;;;6.83;2.80;;;6.60;95.80;;;;;;5056038;28;20544;-69
2022/02/27 09:53:41;;;;;;;3.60;2.73;;;6.70;95.40;;;;;;5054698;28;20914;-68
2022/02/27 09:56:07;;;;;;;3.70;2.47;;;6.70;94.40;;;;;;5054908;28;20208;-68
2022/02/27 09:58:32;;;;;;;3.97;2.70;;;6.80;94.20;;;;;;5055862;28;21038;-68
2022/02/27 10:00:58;;;;;;;4.80;2.73;;;6.80;94.20;;;;;;5055475;28;20279;-69
2022/02/27 10:03:29;;;;;;;5.73;2.43;;;6.90;94.50;;;;;;5059927;28;20231;-69
2022/02/27 10:06:09;;;;;;;4.27;2.63;;;6.90;93.90;;;;;;5059271;28;20226;-69
2022/02/27 10:08:43;;;;;;;3.03;2.73;;;6.90;93.50;;;;;;5055400;28;20468;-68
2022/02/27 10:11:16;;;;;;;3.70;2.63;;;7.00;93.40;;;;;;5037656;28;20468;-70
2022/02/27 10:13:44;;;;;;;3.23;2.37;;;7.10;93.40;;;;;;5054865;28;20462;-68
2022/02/27 10:16:15;;;;;;;5.40;2.90;;;7.20;92.90;;;;;;5056354;28;20958;-69
2022/02/27 10:18:45;;;;;;;2.70;2.40;;;7.30;92.90;;;;;;5058325;28;20487;-69
2022/02/27 10:21:34;;;;;;;4.50;2.70;;;7.30;91.70;;;;;;5057125;28;20482;-69
2022/02/27 10:24:08;;;;;;;2.67;2.00;;;7.40;91.80;;;;;;5055798;28;20577;-69
2022/02/27 10:26:36;;;;;;;3.70;2.87;;;7.50;91.50;;;;;;5056940;28;20455;-67
2022/02/27 10:29:09;;;;;;;3.23;2.57;;;7.50;91.10;;;;;;5036119;28;20817;-67
2022/02/27 10:31:39;;;;;;;5.57;2.40;;;7.50;90.90;;;;;;5035688;28;20992;-68
2022/02/27 10:34:25;;;;;;;3.80;2.27;;;7.50;90.40;;;;;;5036315;28;20447;-69
2022/02/27 10:36:58;;;;;;;4.43;3.10;;;7.60;90.40;;;;;;5018475;28;20463;-67
2022/02/27 10:39:28;;;;;;;3.07;2.73;;;7.60;90.70;;;;;;5053559;28;20422;-68
2022/02/27 10:41:53;;;;;;;6.00;2.40;;;7.70;90.80;;;;;;5056021;28;20425;-69
2022/02/27 10:44:23;;;;;;;5.00;2.57;;;7.80;90.90;;;;;;5056308;28;20467;-68
2022/02/27 10:47:06;;;;;;;2.30;2.10;;;7.70;90.70;;;;;;5056476;28;20199;-69
2022/02/27 10:49:32;;;;;;;2.80;2.53;;;7.80;90.40;;;;;;5055590;28;20422;-68
2022/02/27 10:52:21;;;;;;;2.53;2.23;;;7.90;90.10;;;;;;5055981;28;20421;-69
2022/02/27 10:54:53;;;;;;;5.37;2.60;;;7.90;89.80;;;;;;5056368;28;20647;-70
2022/02/27 10:57:39;;;;;;;2.00;1.90;;;7.90;88.50;;;;;;5067537;28;20463;-68
2022/02/27 11:00:34;;;;;;;2.70;2.17;;;8.00;89.10;;;;;;5057246;28;20481;-68
2022/02/27 11:03:08;;;;;;;2.57;2.10;;;8.00;88.40;;;;;;5057061;28;20976;-68
2022/02/27 11:05:39;;;;;;;2.90;1.80;;;8.10;88.70;;;;;;5057155;28;20494;-69
2022/02/27 11:08:08;;;;;;;4.00;2.27;;;8.30;88.20;;;;;;5055992;28;20432;-69
2022/02/27 11:10:35;;;;;;;3.30;2.20;;;8.20;86.00;;;;;;5055506;28;20460;-68
2022/02/27 11:13:10;;;;;;;4.57;2.50;;;8.10;86.60;;;;;;5055972;28;20429;-68
2022/02/27 11:15:36;;;;;;;7.00;2.80;;;8.20;87.10;;;;;;5055876;28;20408;-68
2022/02/27 11:18:03;;;;;;;3.30;3.03;;;8.30;87.60;;;;;;5055312;28;20444;-69
2022/02/27 11:20:29;;;;;;;4.30;2.53;;;8.30;88.40;;;;;;5056536;28;20435;-68
2022/02/27 11:22:56;;;;;;;4.93;2.40;;;8.20;88.60;;;;;;5056518;28;20563;-69
2022/02/27 11:25:24;;;;;;;3.23;2.60;;;8.30;86.90;;;;;;5056118;28;20711;-69
2022/02/27 11:27:52;;;;;;;2.80;2.20;;;8.30;87.10;;;;;;5054896;28;21024;-68
2022/02/27 11:30:23;;;;;;;2.60;2.40;;;8.40;86.80;;;;;;5055702;28;20526;-68
2022/02/27 11:32:54;;;;;;;3.60;2.20;;;8.50;85.50;;;;;;5054594;28;20457;-68
2022/02/27 11:35:34;;;;;;;2.43;2.03;;;8.60;85.20;;;;;;5055358;28;20894;-68
2022/02/27 11:38:00;;;;;;;1.90;1.80;;;8.60;85.30;;;;;;5055612;28;20435;-68
2022/02/27 11:40:29;;;;;;;2.43;2.00;;;8.70;85.40;;;;;;5054969;28;20464;-67
2022/02/27 11:42:56;;;;;;;2.90;2.47;;;8.80;84.50;;;;;;5054024;28;20616;-68
2022/02/27 11:45:41;;;;;;;2.77;2.50;;;8.90;84.70;;;;;;5054823;28;20422;-68
2022/02/27 11:48:07;;;;;;;2.90;2.50;;;8.80;84.00;;;;;;5054290;28;20436;-69
2022/02/27 11:50:43;;;;;;;2.20;2.00;;;8.80;84.20;;;;;;5054321;28;20414;-68
2022/02/27 11:53:19;;;;;;;2.90;2.23;;;8.80;84.70;;;;;;5054064;28;20182;-68
2022/02/27 11:55:45;;;;;;;1.97;1.87;;;8.90;83.50;;;;;;5054052;28;20455;-68
2022/02/27 11:58:19;;;;;;;2.30;2.10;;;8.90;83.30;;;;;;5054023;28;20468;-67
2022/02/27 12:00:45;;;;;;;6.00;2.30;;;9.00;82.00;;;;;;5036346;28;20799;-67
2022/02/27 12:03:36;;;;;;;2.93;2.00;;;9.00;81.50;;;;;;5053036;28;20456;-67
2022/02/27 12:06:07;;;;;;;2.93;2.03;;;8.90;81.00;;;;;;5054162;28;20166;-68
2022/02/27 12:08:52;;;;;;;2.13;2.00;;;8.90;80.80;;;;;;5054235;28;20413;-67
2022/02/27 12:11:27;;;;;;;2.53;1.70;;;8.80;80.00;;;;;;5050330;28;21124;-68
2022/02/27 12:13:53;;;;;;;2.87;1.97;;;8.90;80.40;;;;;;5048124;28;21110;-68
2022/02/27 12:16:36;;;;;;;2.93;2.40;;;8.90;80.50;;;;;;5054156;28;20999;-68
2022/02/27 12:19:03;;;;;;;3.13;2.83;;;9.00;80.30;;;;;;5053459;28;20555;-69
2022/02/27 12:21:38;;;;;;;2.23;1.83;;;9.00;80.10;;;;;;5053393;28;20425;-69
2022/02/27 12:24:11;;;;;;;5.50;2.57;;;9.00;77.90;;;;;;5050576;28;20467;-68
2022/02/27 12:26:37;;;;;;;2.40;2.20;;;8.90;78.90;;;;;;5054104;28;20433;-68
2022/02/27 12:29:03;;;;;;;2.80;2.20;;;8.80;79.50;;;;;;5053425;28;20917;-69
2022/02/27 12:31:33;;;;;;;2.80;2.10;;;8.90;79.60;;;;;;5053988;28;20183;-68
2022/02/27 12:34:13;;;;;;;2.53;2.30;;;8.80;78.70;;;;;;5052829;28;20442;-68
2022/02/27 12:36:40;;;;;;;4.00;2.57;;;8.90;79.10;;;;;;5038917;28;20437;-67
2022/02/27 12:39:12;;;;;;;2.30;2.10;;;8.80;77.70;;;;;;5052786;28;20454;-69
2022/02/27 12:41:41;;;;;;;3.57;2.60;;;8.70;78.10;;;;;;5053367;28;20417;-68
2022/02/27 12:44:10;;;;;;;3.33;2.50;;;8.70;78.50;;;;;;5053453;28;20461;-69
2022/02/27 12:46:36;;;;;;;2.07;1.93;;;8.80;79.30;;;;;;5053443;28;20882;-69
2022/02/27 12:51:47;;;;;;;2.30;2.00;;;8.80;78.20;;;;;;5053045;28;20420;-69
2022/02/27 12:54:13;;;;;;;2.30;2.10;;;8.90;78.20;;;;;;5052850;28;20516;-68
2022/02/27 12:56:40;;;;;;;3.60;2.20;;;8.80;78.10;;;;;;5053099;28;20215;-69
2022/02/27 12:59:06;;;;;;;2.80;2.27;;;8.90;78.90;;;;;;5052391;28;20441;-69